createdAt,value
2023-03-14T00:01:57.886Z,0.70
2023-03-14T00:04:25.493Z,0.30
2023-03-14T00:06:53.048Z,0.63
2023-03-14T00:09:20.861Z,0.70
2023-03-14T00:11:48.428Z,0.80
2023-03-14T00:14:17.840Z,0.50
2023-03-14T00:16:47.651Z,0.60
2023-03-14T00:19:15.331Z,0.52
2023-03-14T00:21:42.897Z,0.43
2023-03-14T00:24:10.502Z,0.52
2023-03-14T00:26:38.109Z,0.77
2023-03-14T00:29:07.704Z,0.60
2023-03-14T00:31:37.146Z,0.60
2023-03-14T00:34:05.005Z,0.40
2023-03-14T00:36:33.653Z,0.57
2023-03-14T00:39:01.266Z,0.50
2023-03-14T00:41:28.823Z,0.20
2023-03-14T00:43:56.589Z,0.57
2023-03-14T00:46:24.216Z,0.70
2023-03-14T00:48:53.231Z,0.60
2023-03-14T00:51:20.857Z,0.70
2023-03-14T00:53:48.948Z,0.65
2023-03-14T00:56:16.848Z,0.50
2023-03-14T00:58:44.547Z,0.57
2023-03-14T01:01:14.803Z,0.60
2023-03-14T01:03:42.413Z,0.60
2023-03-14T01:06:12.872Z,0.30
2023-03-14T01:08:40.532Z,0.60
2023-03-14T01:11:09.089Z,0.52
2023-03-14T01:13:36.694Z,0.77
2023-03-14T01:16:06.149Z,0.75
2023-03-14T01:18:33.900Z,0.60
2023-03-14T01:21:01.519Z,0.75
2023-03-14T01:23:30.487Z,0.70
2023-03-14T01:25:58.107Z,0.70
2023-03-14T01:28:25.842Z,0.77
2023-03-14T01:30:53.515Z,0.70
2023-03-14T01:33:21.334Z,0.90
2023-03-14T01:35:51.753Z,0.50
2023-03-14T01:38:19.354Z,0.70
2023-03-14T01:40:48.349Z,0.70
2023-03-14T01:43:16.893Z,0.47
2023-03-14T01:46:03.766Z,0.50
2023-03-14T01:48:34.629Z,0.40
2023-03-14T01:51:03.170Z,0.40
2023-03-14T01:53:31.531Z,0.75
2023-03-14T01:56:00.501Z,0.52
2023-03-14T01:58:29.778Z,0.88
2023-03-14T02:00:59.360Z,0.40
2023-03-14T02:03:28.610Z,0.45
2023-03-14T02:05:58.445Z,0.40
2023-03-14T02:08:26.330Z,0.70
2023-03-14T02:11:02.799Z,0.60
2023-03-14T02:13:49.341Z,0.88
2023-03-14T02:16:27.908Z,0.77
2023-03-14T02:19:16.311Z,0.90
2023-03-14T02:22:11.133Z,0.90
2023-03-14T02:24:48.331Z,0.65
2023-03-14T02:27:18.224Z,0.63
2023-03-14T02:29:50.679Z,0.47
2023-03-14T02:32:18.891Z,0.40
2023-03-14T02:34:47.822Z,0.50
2023-03-14T02:37:16.707Z,0.20
2023-03-14T02:39:46.476Z,0.43
2023-03-14T02:42:17.338Z,0.35
2023-03-14T02:44:50.313Z,0.55
2023-03-14T02:47:17.962Z,0.60
2023-03-14T02:49:45.583Z,0.75
2023-03-14T02:52:13.219Z,0.57
2023-03-14T02:54:40.808Z,0.65
2023-03-14T02:57:08.583Z,0.30
2023-03-14T02:59:37.630Z,0.65
2023-03-14T03:02:10.659Z,0.47
2023-03-14T03:04:38.227Z,0.45
2023-03-14T03:07:05.868Z,0.40
2023-03-14T03:09:33.498Z,0.57
2023-03-14T03:12:01.191Z,0.70
2023-03-14T03:14:30.688Z,0.57
2023-03-14T03:17:03.272Z,0.80
2023-03-14T03:19:30.938Z,0.50
2023-03-14T03:21:58.702Z,0.73
2023-03-14T03:24:26.316Z,0.47
2023-03-14T03:26:54.175Z,0.35
2023-03-14T03:29:21.944Z,0.50
2023-03-14T03:31:50.403Z,0.38
2023-03-14T03:34:20.021Z,0.47
2023-03-14T03:36:51.251Z,0.65
2023-03-14T03:39:18.914Z,0.60
2023-03-14T03:41:48.996Z,0.40
2023-03-14T03:44:17.142Z,0.50
2023-03-14T03:46:44.756Z,0.20
2023-03-14T03:49:12.421Z,0.80
2023-03-14T03:51:42.763Z,0.60
2023-03-14T03:54:10.394Z,0.55
2023-03-14T03:56:39.454Z,0.63
2023-03-14T03:59:07.735Z,1.17
2023-03-14T04:01:35.277Z,0.65
2023-03-14T04:04:03.108Z,1.08
2023-03-14T04:06:31.217Z,0.80
2023-03-14T04:09:02.319Z,1.00
2023-03-14T04:11:52.687Z,1.15
2023-03-14T04:14:23.531Z,1.42
2023-03-14T04:17:01.205Z,0.80
2023-03-14T04:19:28.779Z,1.13
2023-03-14T04:21:57.656Z,0.88
2023-03-14T04:24:29.821Z,0.70
2023-03-14T04:26:59.967Z,0.70
2023-03-14T04:29:27.647Z,1.00
2023-03-14T04:31:55.253Z,1.08
2023-03-14T04:34:22.975Z,0.75
2023-03-14T04:36:53.865Z,0.70
2023-03-14T04:39:28.099Z,0.85
2023-03-14T04:42:07.170Z,0.90
2023-03-14T04:44:37.766Z,0.63
2023-03-14T04:47:05.399Z,0.80
2023-03-14T04:49:33.732Z,0.82
2023-03-14T04:52:02.075Z,0.60
2023-03-14T04:54:31.867Z,1.05
2023-03-14T04:57:01.297Z,1.17
2023-03-14T04:59:33.787Z,0.82
2023-03-14T05:02:12.456Z,0.88
2023-03-14T05:05:00.336Z,1.02
2023-03-14T05:07:52.265Z,0.73
2023-03-14T05:10:53.475Z,0.50
2023-03-14T05:13:39.162Z,1.00
2023-03-14T05:16:29.993Z,0.70
2023-03-14T05:19:05.528Z,0.43
2023-03-14T05:21:51.725Z,0.60
2023-03-14T05:24:31.034Z,0.63
2023-03-14T05:27:30.872Z,0.77
2023-03-14T05:30:17.269Z,0.60
2023-03-14T05:33:08.854Z,0.60
2023-03-14T05:35:59.711Z,0.68
2023-03-14T05:38:45.987Z,1.10
2023-03-14T05:41:36.737Z,0.80
2023-03-14T05:44:19.063Z,0.70
2023-03-14T05:47:12.639Z,0.60
2023-03-14T05:50:10.129Z,0.73
2023-03-14T05:52:49.638Z,0.55
2023-03-14T05:55:32.363Z,0.75
2023-03-14T05:58:20.220Z,0.80
2023-03-14T06:01:07.023Z,0.57
2023-03-14T06:03:52.052Z,0.63
2023-03-14T06:06:21.048Z,0.80
2023-03-14T06:08:48.770Z,0.60
2023-03-14T06:11:16.412Z,0.90
2023-03-14T06:13:43.988Z,0.70
2023-03-14T06:16:11.628Z,0.55
2023-03-14T06:18:39.277Z,0.63
2023-03-14T06:21:09.201Z,0.40
2023-03-14T06:23:40.032Z,0.68
2023-03-14T06:26:07.916Z,0.68
2023-03-14T06:28:35.668Z,0.65
2023-03-14T06:31:05.476Z,0.68
2023-03-14T06:33:40.068Z,0.47
2023-03-14T06:36:09.379Z,0.73
2023-03-14T06:38:37.559Z,1.17
2023-03-14T06:41:07.664Z,0.90
2023-03-14T06:43:40.355Z,0.98
2023-03-14T06:46:09.266Z,0.88
2023-03-14T06:48:39.704Z,0.93
2023-03-14T06:51:08.651Z,0.80
2023-03-14T06:53:36.459Z,1.10
2023-03-14T06:56:04.625Z,0.75
2023-03-14T06:58:35.488Z,0.93
2023-03-14T07:01:06.451Z,1.00
2023-03-14T07:03:40.585Z,1.08
2023-03-14T07:06:08.400Z,1.08
2023-03-14T07:08:35.970Z,1.15
2023-03-14T07:11:03.590Z,0.70
2023-03-14T07:13:31.671Z,1.20
2023-03-14T07:16:06.124Z,1.00
2023-03-14T07:18:34.043Z,0.70
2023-03-14T07:21:05.350Z,0.90
2023-03-14T07:23:32.947Z,1.02
2023-03-14T07:26:00.674Z,0.95
2023-03-14T07:28:29.158Z,1.17
2023-03-14T07:31:07.053Z,0.88
2023-03-14T07:33:34.699Z,1.17
2023-03-14T07:36:03.177Z,1.02
2023-03-14T07:38:30.826Z,0.90
2023-03-14T07:41:26.050Z,0.95
2023-03-14T07:44:12.262Z,1.33
2023-03-14T07:46:41.181Z,0.90
2023-03-14T07:49:08.928Z,1.05
2023-03-14T07:51:36.478Z,1.00
2023-03-14T07:54:04.031Z,0.80
2023-03-14T07:56:31.532Z,1.30
2023-03-14T07:58:59.459Z,1.00
2023-03-14T08:01:27.086Z,0.75
2023-03-14T08:03:55.988Z,1.10
2023-03-14T08:06:23.640Z,0.85
2023-03-14T08:08:51.225Z,1.00
2023-03-14T08:11:18.806Z,0.73
2023-03-14T08:13:50.511Z,1.00
2023-03-14T08:16:18.623Z,1.00
2023-03-14T08:18:46.294Z,0.70
2023-03-14T08:21:15.317Z,0.90
2023-03-14T08:23:42.914Z,0.80
2023-03-14T08:26:10.529Z,1.20
2023-03-14T08:28:38.315Z,1.13
2023-03-14T08:31:06.325Z,0.82
2023-03-14T08:33:33.947Z,0.82
2023-03-14T08:36:02.235Z,0.70
2023-03-14T08:38:31.258Z,0.57
2023-03-14T08:40:59.663Z,0.38
2023-03-14T08:43:27.267Z,0.60
2023-03-14T08:45:54.886Z,0.35
2023-03-14T08:48:22.441Z,0.60
2023-03-14T08:50:50.057Z,0.50
2023-03-14T08:53:17.861Z,0.35
2023-03-14T08:55:46.773Z,0.45
2023-03-14T08:58:14.451Z,0.20
2023-03-14T09:00:41.986Z,0.45
2023-03-14T09:03:09.590Z,0.32
2023-03-14T09:05:37.255Z,0.40
2023-03-14T09:08:04.846Z,0.60
2023-03-14T09:10:32.415Z,0.73
2023-03-14T09:13:01.350Z,0.40
2023-03-14T09:15:28.963Z,0.60
2023-03-14T09:17:56.525Z,0.43
2023-03-14T09:20:24.121Z,0.32
2023-03-14T09:22:51.999Z,0.45
2023-03-14T09:25:19.642Z,0.68
2023-03-14T09:27:47.263Z,0.45
2023-03-14T09:30:16.366Z,0.38
2023-03-14T09:32:44.040Z,0.50
2023-03-14T09:35:11.874Z,0.40
2023-03-14T09:37:40.277Z,0.57
2023-03-14T09:40:11.995Z,0.50
2023-03-14T09:42:40.684Z,0.47
2023-03-14T09:45:12.649Z,0.40
2023-03-14T09:47:56.434Z,0.30
2023-03-14T09:50:26.884Z,0.40
2023-03-14T09:52:58.023Z,0.40
2023-03-14T09:55:25.671Z,0.25
2023-03-14T09:57:56.891Z,0.30
2023-03-14T10:00:26.019Z,0.30
2023-03-14T10:02:55.612Z,0.30
2023-03-14T10:05:24.825Z,0.50
2023-03-14T10:07:52.625Z,0.40
2023-03-14T10:10:21.420Z,0.40
2023-03-14T10:12:49.792Z,0.60
2023-03-14T10:15:24.737Z,0.25
2023-03-14T10:17:53.148Z,0.32
2023-03-14T10:20:34.464Z,0.32
2023-03-14T10:23:02.686Z,0.40
2023-03-14T10:25:31.215Z,0.40
2023-03-14T10:27:59.023Z,0.28
2023-03-14T10:30:31.585Z,0.30
2023-03-14T10:32:59.285Z,0.50
2023-03-14T10:35:27.434Z,0.20
2023-03-14T10:37:58.730Z,0.30
2023-03-14T10:40:28.854Z,0.52
2023-03-14T10:42:56.558Z,0.32
2023-03-14T10:45:28.304Z,0.38
2023-03-14T10:47:55.882Z,0.30
2023-03-14T10:50:28.490Z,0.30
2023-03-14T10:53:02.346Z,0.40
2023-03-14T10:55:40.906Z,0.40
2023-03-14T10:58:19.156Z,0.40
2023-03-14T11:00:47.530Z,0.35
2023-03-14T11:03:16.452Z,0.32
2023-03-14T11:05:46.319Z,0.28
2023-03-14T11:08:17.064Z,0.40
2023-03-14T11:10:47.443Z,0.50
2023-03-14T11:13:17.794Z,0.40
2023-03-14T11:15:50.924Z,0.50
2023-03-14T11:18:28.810Z,0.40
2023-03-14T11:20:58.763Z,0.55
2023-03-14T11:23:30.102Z,0.30
2023-03-14T11:26:00.780Z,0.63
2023-03-14T11:28:31.911Z,0.70
2023-03-14T11:31:06.075Z,0.65
2023-03-14T11:33:37.655Z,0.73
2023-03-14T11:36:08.744Z,0.40
2023-03-14T11:38:40.394Z,0.55
2023-03-14T11:41:12.345Z,0.60
2023-03-14T11:43:43.642Z,0.40
2023-03-14T11:46:12.811Z,0.63
2023-03-14T11:48:44.555Z,0.30
2023-03-14T11:51:15.980Z,0.47
2023-03-14T11:53:57.352Z,0.50
2023-03-14T11:56:28.621Z,0.32
2023-03-14T11:58:59.452Z,0.47
2023-03-14T12:01:33.971Z,0.40
2023-03-14T12:04:04.642Z,0.60
2023-03-14T12:06:36.205Z,0.50
2023-03-14T12:09:05.853Z,0.40
2023-03-14T12:11:35.870Z,0.55
2023-03-14T12:14:03.872Z,0.47
2023-03-14T12:16:41.064Z,0.40
2023-03-14T12:19:29.763Z,0.40
2023-03-14T12:21:59.790Z,0.30
2023-03-14T12:24:31.678Z,0.40
2023-03-14T12:27:00.691Z,0.50
2023-03-14T12:29:28.435Z,0.77
2023-03-14T12:32:13.660Z,0.40
2023-03-14T12:34:43.315Z,0.50
2023-03-14T12:37:21.682Z,0.50
2023-03-14T12:39:52.842Z,0.50
2023-03-14T12:42:29.684Z,0.47
2023-03-14T12:45:16.016Z,0.40
2023-03-14T12:47:49.786Z,0.77
2023-03-14T12:50:21.357Z,0.80
2023-03-14T12:52:58.691Z,0.50
2023-03-14T12:55:31.107Z,0.98
2023-03-14T12:58:05.059Z,0.20
2023-03-14T13:00:34.492Z,0.57
2023-03-14T13:03:04.237Z,0.65
2023-03-14T13:05:31.791Z,0.47
2023-03-14T13:08:07.182Z,0.50
2023-03-14T13:10:44.212Z,0.35
2023-03-14T13:13:17.624Z,0.90
2023-03-14T13:15:47.549Z,0.22
2023-03-14T13:18:16.934Z,0.85
2023-03-14T13:20:47.121Z,0.60
2023-03-14T13:23:25.161Z,0.30
2023-03-14T13:25:54.326Z,0.50
2023-03-14T13:28:22.205Z,1.10
2023-03-14T13:30:51.051Z,0.50
2023-03-14T13:33:19.970Z,0.75
2023-03-14T13:35:48.653Z,0.80
2023-03-14T13:38:20.738Z,0.80
2023-03-14T13:40:48.884Z,0.50
2023-03-14T13:43:19.785Z,0.60
2023-03-14T13:45:52.164Z,0.35
2023-03-14T13:48:20.058Z,1.20
2023-03-14T13:50:50.870Z,0.47
2023-03-14T13:53:18.437Z,0.50
2023-03-14T13:55:46.112Z,0.45
2023-03-14T13:58:25.326Z,0.50
2023-03-14T14:01:04.096Z,0.60
2023-03-14T14:03:33.072Z,0.68
2023-03-14T14:06:00.703Z,0.70
2023-03-14T14:08:28.889Z,0.40
2023-03-14T14:10:59.578Z,0.63
2023-03-14T14:13:29.211Z,0.77
2023-03-14T14:15:57.254Z,0.50
2023-03-14T14:18:26.416Z,0.40
2023-03-14T14:20:54.046Z,0.45
2023-03-14T14:23:26.072Z,0.88
2023-03-14T14:25:54.196Z,0.57
2023-03-14T14:28:26.297Z,0.50
2023-03-14T14:31:04.154Z,0.55
2023-03-14T14:33:39.632Z,0.90
2023-03-14T14:36:13.815Z,0.50
2023-03-14T14:38:41.410Z,0.35
2023-03-14T14:41:13.252Z,0.32
2023-03-14T14:43:42.211Z,0.60
2023-03-14T14:46:11.832Z,0.65
2023-03-14T14:48:39.871Z,0.45
2023-03-14T14:51:08.305Z,0.40
2023-03-14T14:53:38.600Z,0.30
2023-03-14T14:56:07.020Z,0.30
2023-03-14T14:58:36.183Z,0.52
2023-03-14T15:01:06.208Z,0.30
2023-03-14T15:03:36.508Z,0.30
2023-03-14T15:06:04.661Z,0.30
2023-03-14T15:08:32.415Z,0.60
2023-03-14T15:11:00.241Z,0.30
2023-03-14T15:13:27.889Z,0.68
2023-03-14T15:15:57.167Z,0.68
2023-03-14T15:18:26.502Z,0.50
2023-03-14T15:20:56.184Z,0.50
2023-03-14T15:23:24.009Z,0.50
2023-03-14T15:25:55.784Z,0.50
2023-03-14T15:28:24.596Z,0.60
2023-03-14T15:30:53.029Z,0.47
2023-03-14T15:33:20.655Z,0.60
2023-03-14T15:35:49.088Z,0.30
2023-03-14T15:38:20.660Z,0.52
2023-03-14T15:40:48.579Z,0.40
2023-03-14T15:43:16.221Z,0.60
2023-03-14T15:45:43.841Z,0.77
2023-03-14T15:48:20.327Z,0.40
2023-03-14T15:50:47.899Z,0.70
2023-03-14T15:53:15.497Z,0.30
2023-03-14T15:55:44.449Z,0.82
2023-03-14T15:58:16.032Z,0.88
2023-03-14T16:00:43.648Z,0.85
2023-03-14T16:03:11.745Z,0.70
2023-03-14T16:05:39.475Z,1.00
2023-03-14T16:08:07.516Z,0.60
2023-03-14T16:10:35.091Z,0.68
2023-03-14T16:13:04.558Z,0.80
2023-03-14T16:15:32.138Z,0.77
2023-03-14T16:18:00.921Z,0.68
2023-03-14T16:20:31.323Z,0.80
2023-03-14T16:23:03.347Z,0.45
2023-03-14T16:25:31.570Z,0.77
2023-03-14T16:28:10.397Z,0.60
2023-03-14T16:30:40.327Z,0.80
2023-03-14T16:33:12.251Z,0.35
2023-03-14T16:35:40.286Z,0.80
2023-03-14T16:38:07.979Z,0.60
2023-03-14T16:40:35.568Z,0.75
2023-03-14T16:45:53.453Z,0.90
2023-03-14T16:48:21.394Z,0.80
2023-03-14T16:50:50.671Z,0.93
2023-03-14T16:53:18.313Z,0.82
2023-03-14T16:55:45.978Z,1.00
2023-03-14T16:58:14.087Z,1.15
2023-03-14T17:00:41.698Z,0.90
2023-03-14T17:03:11.764Z,0.90
2023-03-14T17:05:39.568Z,1.13
2023-03-14T17:08:07.150Z,1.48
2023-03-14T17:10:37.059Z,1.13
2023-03-14T17:13:05.665Z,1.27
2023-03-14T17:15:33.411Z,1.30
2023-03-14T17:18:02.943Z,1.52
2023-03-14T17:20:32.282Z,1.58
2023-03-14T17:22:59.865Z,1.08
2023-03-14T17:25:27.462Z,0.80
2023-03-14T17:27:55.022Z,1.02
2023-03-14T17:30:22.647Z,0.80
2023-03-14T17:32:50.234Z,1.05
2023-03-14T17:35:17.855Z,0.80
2023-03-14T17:37:46.780Z,0.98
2023-03-14T17:40:14.367Z,0.90
2023-03-14T17:42:42.066Z,0.93
2023-03-14T17:45:10.246Z,1.30
2023-03-14T17:47:37.798Z,1.08
2023-03-14T17:50:06.087Z,1.20
2023-03-14T17:52:33.822Z,1.27
2023-03-14T17:55:02.954Z,1.23
2023-03-14T17:57:30.717Z,1.20
2023-03-14T17:59:58.396Z,1.25
2023-03-14T18:02:26.432Z,1.20
2023-03-14T18:04:54.287Z,1.17
2023-03-14T18:07:21.946Z,1.35
2023-03-14T18:09:49.518Z,1.20
2023-03-14T18:12:18.542Z,1.25
2023-03-14T18:14:46.212Z,1.00
2023-03-14T18:17:13.834Z,1.00
2023-03-14T18:19:41.519Z,1.10
2023-03-14T18:22:09.166Z,1.38
2023-03-14T18:24:36.787Z,1.05
2023-03-14T18:27:04.530Z,1.55
2023-03-14T18:29:34.223Z,1.45
2023-03-14T18:32:01.803Z,1.40
2023-03-14T18:34:29.347Z,1.27
2023-03-14T18:36:57.002Z,1.40
2023-03-14T18:39:24.771Z,1.58
2023-03-14T18:41:52.902Z,1.40
2023-03-14T18:44:21.250Z,1.30
2023-03-14T18:46:50.404Z,1.38
2023-03-14T18:49:19.116Z,1.45
2023-03-14T18:51:48.505Z,1.70
2023-03-14T18:54:16.094Z,1.20
2023-03-14T18:56:43.765Z,1.70
2023-03-14T18:59:11.591Z,1.63
2023-03-14T19:01:39.314Z,1.50
2023-03-14T19:04:10.896Z,1.80
2023-03-14T19:06:38.850Z,1.80
2023-03-14T19:09:07.481Z,1.75
2023-03-14T19:11:35.098Z,1.52
2023-03-14T19:14:03.713Z,1.73
2023-03-14T19:16:31.333Z,1.77
2023-03-14T19:18:58.896Z,1.58
2023-03-14T19:21:29.211Z,1.38
2023-03-14T19:23:56.972Z,1.55
2023-03-14T19:26:24.581Z,1.42
2023-03-14T19:28:53.722Z,1.20
2023-03-14T19:31:21.584Z,1.30
2023-03-14T19:33:49.280Z,1.30
2023-03-14T19:36:24.301Z,1.50
2023-03-14T19:38:53.705Z,1.60
2023-03-14T19:41:21.972Z,1.23
2023-03-14T19:43:49.686Z,1.70
2023-03-14T19:46:17.582Z,1.30
2023-03-14T19:48:46.411Z,1.50
2023-03-14T19:51:14.140Z,1.65
2023-03-14T19:53:42.834Z,1.83
2023-03-14T19:56:12.085Z,1.45
2023-03-14T19:58:40.258Z,1.23
2023-03-14T20:01:08.413Z,0.75
2023-03-14T20:03:36.378Z,0.57
2023-03-14T20:06:09.122Z,0.70
2023-03-14T20:08:36.710Z,0.93
2023-03-14T20:11:04.692Z,1.10
2023-03-14T20:13:33.665Z,0.68
2023-03-14T20:16:03.876Z,0.60
2023-03-14T20:18:31.577Z,0.50
2023-03-14T20:20:59.151Z,0.63
2023-03-14T20:23:27.183Z,0.85
2023-03-14T20:25:55.838Z,0.77
2023-03-14T20:28:23.396Z,0.98
2023-03-14T20:30:52.600Z,0.47
2023-03-14T20:33:20.772Z,0.57
2023-03-14T20:35:54.239Z,0.73
2023-03-14T20:38:21.825Z,0.50
2023-03-14T20:40:49.423Z,0.85
2023-03-14T20:43:16.977Z,0.93
2023-03-14T20:45:44.522Z,0.63
2023-03-14T20:48:13.399Z,0.93
2023-03-14T20:50:40.969Z,0.50
2023-03-14T20:53:08.560Z,0.95
2023-03-14T20:55:36.163Z,0.77
2023-03-14T20:58:03.688Z,0.70
2023-03-14T21:00:31.564Z,0.50
2023-03-14T21:02:59.138Z,0.93
2023-03-14T21:05:28.143Z,0.93
2023-03-14T21:07:55.766Z,0.45
2023-03-14T21:10:23.304Z,0.68
2023-03-14T21:12:50.884Z,0.80
2023-03-14T21:15:18.515Z,1.17
2023-03-14T21:17:46.125Z,0.98
2023-03-14T21:20:14.282Z,1.08
2023-03-14T21:22:43.267Z,0.90
2023-03-14T21:25:11.095Z,1.00
2023-03-14T21:27:39.223Z,0.90
2023-03-14T21:30:07.525Z,1.02
2023-03-14T21:32:35.158Z,0.85
2023-03-14T21:35:02.773Z,0.73
2023-03-14T21:37:30.331Z,1.08
2023-03-14T21:39:59.272Z,0.88
2023-03-14T21:42:27.015Z,0.88
2023-03-14T21:44:54.598Z,0.70
2023-03-14T21:47:23.555Z,0.80
2023-03-14T21:49:51.493Z,0.77
2023-03-14T21:52:19.117Z,0.90
2023-03-14T21:54:46.715Z,0.75
2023-03-14T21:57:16.858Z,1.15
2023-03-14T21:59:45.276Z,1.23
2023-03-14T22:02:18.297Z,1.27
2023-03-14T22:04:45.965Z,0.85
2023-03-14T22:07:15.700Z,1.17
2023-03-14T22:09:46.010Z,0.90
2023-03-14T22:12:19.387Z,1.15
2023-03-14T22:14:47.535Z,1.13
2023-03-14T22:17:15.394Z,0.95
2023-03-14T22:19:42.975Z,1.00
2023-03-14T22:22:10.580Z,1.15
2023-03-14T22:24:38.182Z,0.63
2023-03-14T22:27:05.767Z,0.95
2023-03-14T22:29:37.483Z,0.88
2023-03-14T22:32:05.131Z,0.90
2023-03-14T22:34:32.698Z,0.77
2023-03-14T22:37:00.296Z,0.70
2023-03-14T22:39:28.189Z,0.68
2023-03-14T22:41:56.256Z,1.05
2023-03-14T22:44:23.818Z,0.93
2023-03-14T22:46:52.779Z,1.15
2023-03-14T22:49:20.410Z,0.82
2023-03-14T22:51:47.965Z,1.13
2023-03-14T22:54:15.530Z,1.35
2023-03-14T22:56:43.075Z,1.00
2023-03-14T22:59:10.641Z,0.93
2023-03-14T23:01:38.207Z,0.57
2023-03-14T23:04:07.576Z,1.08
2023-03-14T23:06:35.143Z,1.10
2023-03-14T23:09:04.336Z,1.00
2023-03-14T23:11:31.900Z,1.63
2023-03-14T23:13:59.478Z,0.95
2023-03-14T23:16:34.097Z,0.88
2023-03-14T23:19:09.714Z,0.98
2023-03-14T23:21:37.696Z,0.95
2023-03-14T23:24:06.065Z,0.80
2023-03-14T23:26:35.269Z,0.82
2023-03-14T23:29:05.343Z,0.85
2023-03-14T23:31:33.100Z,0.77
2023-03-14T23:34:00.670Z,0.50
2023-03-14T23:36:29.707Z,0.73
2023-03-14T23:38:57.568Z,0.68
2023-03-14T23:41:25.142Z,0.77
2023-03-14T23:43:52.722Z,0.73
2023-03-14T23:46:21.672Z,0.60
2023-03-14T23:48:49.274Z,1.15
2023-03-14T23:51:17.033Z,0.82
2023-03-14T23:53:45.955Z,1.00
2023-03-14T23:56:14.594Z,0.82
2023-03-14T23:58:42.202Z,0.80
